Boi Taull, Spain
Current Conditions -  °F | °C
As of 2:30 PM on Saturday 22 Nov 2014 (Local Time) from LFBT Reporting Station
Clear Clear  
Wind Chill: 68°   Ceiling: Unl
Heat Index: 68°   Visibility: 6mi
Dew Point: 52°   Wind: 6mph
Humidity: 56%   Direction: 10°N
Pressure: 29.94"   Gusts: NA
Location:  42.52°N, 0.85°E
Report Text: LFBT 221330Z AUTO 01005KT 9999 NSC 20/11 Q1014
Loading
Personal Weather Stations






























Interactive Weather Map New forecast layout! Learn more

10-Day Weather Forecast

Advertisements
Track Severe Weather on mobile